Arroyo, Texas
Current Conditions -  °F | °C
As of 4:52 AM on Friday 31 Oct 2014 (Local Time) from KHRL Reporting Station
Clear Clear  
Wind Chill: 66°   Ceiling: Unl
Heat Index: 66°   Visibility: 8mi
Dew Point: 66°   Wind: 0mph
Humidity: 100%   Direction: NA
Pressure: 30.05"   Gusts: NA
Location:  26.2089°N, 97.6849°W
Report Text: KHRL 310952Z 00000KT 8SM CLR 19/19 A3005 RMK AO2 SLP175 T01890189
Loading
Personal Weather Stations






























Interactive Weather Map
Tropical Storm Tracking
New forecast layout! Learn more

10-Day Weather Forecast

Advertisements
Track Severe Weather on mobile